Time;durP1;ratioP1;P1;durP2;ratioP2;P2;SDS_P1;SDS_P2;PMS_P1;PMS_P2;Temp;Humidity;BMP_temperature;BMP_pressure;BME280_temperature;BME280_humidity;BME280_pressure;Samples;Min_cycle;Max_cycle;Signal;HPM_P1;HPM_P2
2022/01/25 00:24:21;;;;;;;22.55;4.28;;;;;;;4.46;100.00;101666.94;4991288;28;20479;-50
2022/01/25 00:30:44;;;;;;;27.05;4.85;;;;;;;4.52;100.00;101676.41;4990711;28;20054;-50
2022/01/25 00:33:54;;;;;;;16.40;2.40;;;;;;;4.50;100.00;101662.97;4990016;28;20065;-50
2022/01/25 00:36:58;;;;;;;13.50;5.28;;;;;;;4.58;100.00;101663.78;4990694;28;20403;-50
2022/01/25 00:40:01;;;;;;;35.53;4.13;;;;;;;4.63;100.00;101665.38;4990593;28;20066;-50
2022/01/25 00:43:04;;;;;;;20.60;3.58;;;;;;;4.61;100.00;101658.28;4990767;28;20046;-50
2022/01/25 00:46:10;;;;;;;9.32;3.03;;;;;;;4.56;100.00;101649.59;4991067;28;20383;-50
2022/01/25 00:49:24;;;;;;;12.98;4.45;;;;;;;4.55;100.00;101648.81;4994535;28;20076;-50
2022/01/25 00:55:40;;;;;;;12.50;4.13;;;;;;;4.61;100.00;101658.28;4994018;28;20057;-50
2022/01/25 00:58:44;;;;;;;10.73;2.85;;;;;;;4.61;100.00;101654.75;4993304;28;20054;-50
2022/01/25 01:01:50;;;;;;;8.15;2.10;;;;;;;4.59;100.00;101648.84;4994129;28;20054;-50
2022/01/25 01:04:54;;;;;;;27.83;5.45;;;;;;;4.53;100.00;101650.38;4994498;28;20510;-50
2022/01/25 01:07:57;;;;;;;13.50;5.47;;;;;;;4.47;100.00;101651.94;4994112;28;20058;-50
2022/01/25 01:11:04;;;;;;;19.13;5.15;;;;;;;4.51;100.00;101648.03;4993383;28;20378;-50
2022/01/25 01:14:22;;;;;;;41.63;3.75;;;;;;;4.58;100.00;101638.97;4994546;28;20409;-50
2022/01/25 01:34:37;;;;;;;25.92;6.60;;;;;;;4.60;100.00;101634.63;4994033;28;20062;-50
2022/01/25 01:43:58;;;;;;;27.58;6.03;;;;;;;4.70;100.00;101640.56;4973042;28;20055;-50
2022/01/25 01:47:09;;;;;;;7.80;2.08;;;;;;;4.80;100.00;101639.78;4983981;28;20471;-50
2022/01/25 01:50:15;;;;;;;21.02;4.55;;;;;;;4.83;100.00;101636.25;4974427;28;20058;-50
2022/01/25 01:53:19;;;;;;;31.60;5.13;;;;;;;4.83;100.00;101636.25;4974007;28;20062;-50
2022/01/25 01:56:24;;;;;;;28.60;5.35;;;;;;;4.83;100.00;101630.72;4979495;28;20054;-50
2022/01/25 01:59:27;;;;;;;20.48;4.00;;;;;;;4.84;100.00;101626.78;4992500;28;20606;-50
2022/01/25 02:02:31;;;;;;;9.70;2.75;;;;;;;4.79;100.00;101624.41;4993550;28;20062;-50
2022/01/25 02:05:36;;;;;;;23.85;5.25;;;;;;;4.77;100.00;101633.06;4993570;28;20066;-50
2022/01/25 02:08:39;;;;;;;18.55;4.60;;;;;;;4.58;100.00;101620.44;4992979;28;20055;-50
2022/01/25 02:11:43;;;;;;;50.88;6.63;;;;;;;4.52;100.00;101622.03;4992315;28;20397;-50
2022/01/25 02:14:47;;;;;;;22.33;6.85;;;;;;;4.54;100.00;101625.19;4993156;28;20046;-50
2022/01/25 02:22:21;;;;;;;22.55;4.93;;;;;;;4.59;100.00;101621.25;4992848;28;20050;-50
2022/01/25 02:24:37;;;;;;;23.70;4.45;;;;;;;4.21;100.00;101622.72;4992612;28;20525;-50
2022/01/25 02:27:41;;;;;;;49.83;5.50;;;;;;;4.40;100.00;101614.09;4992454;28;20050;-50
2022/01/25 02:30:45;;;;;;;20.27;5.50;;;;;;;4.26;100.00;101613.28;4991714;28;20066;-50
2022/01/25 02:33:49;;;;;;;13.63;3.97;;;;;;;4.49;100.00;101609.00;4992811;28;20499;-50
2022/01/25 02:37:02;;;;;;;14.23;4.38;;;;;;;4.50;100.00;101612.56;4992189;28;20058;-50
2022/01/25 02:40:06;;;;;;;19.50;3.90;;;;;;;4.51;100.00;101597.56;4993102;28;20058;-50
2022/01/25 02:43:12;;;;;;;22.90;4.80;;;;;;;4.57;100.00;101599.53;4992825;28;20054;-50
2022/01/25 02:49:19;;;;;;;13.57;3.38;;;;;;;4.56;100.00;101595.22;4991100;28;20054;-50
2022/01/25 02:52:23;;;;;;;7.43;3.03;;;;;;;4.56;100.00;101598.00;4992738;28;20443;-50
2022/01/25 02:55:26;;;;;;;22.63;4.68;;;;;;;4.55;100.00;101607.44;4992869;28;20077;-50
2022/01/25 02:58:30;;;;;;;7.40;2.95;;;;;;;4.54;100.00;101603.09;4973302;28;20955;-50
2022/01/25 03:01:34;;;;;;;30.85;5.95;;;;;;;4.55;100.00;101598.34;4973507;28;20050;-50
2022/01/25 03:04:38;;;;;;;25.33;4.80;;;;;;;4.49;100.00;101602.69;4972950;28;20055;-50
2022/01/25 03:07:44;;;;;;;30.02;6.38;;;;;;;4.37;100.00;101601.09;4989149;28;20403;-50
2022/01/25 03:10:47;;;;;;;17.83;3.28;;;;;;;4.47;100.00;101603.09;4991309;28;20050;-50
2022/01/25 03:13:57;;;;;;;20.05;7.60;;;;;;;4.66;100.00;101595.63;4992531;28;20046;-50
2022/01/25 03:20:07;;;;;;;33.72;7.15;;;;;;;4.73;100.00;101610.22;4992089;28;20503;-50
2022/01/25 03:23:21;;;;;;;14.55;4.45;;;;;;;4.66;100.00;101609.44;4991805;28;20050;-50
2022/01/25 03:26:25;;;;;;;9.13;4.35;;;;;;;4.68;100.00;101598.78;4991703;28;20499;-50
2022/01/25 03:29:28;;;;;;;20.13;6.25;;;;;;;4.71;100.00;101600.75;4992143;28;20058;-50
2022/01/25 03:32:32;;;;;;;12.13;5.00;;;;;;;4.71;100.00;101595.22;4991980;28;20411;-50
2022/01/25 03:35:35;;;;;;;24.77;5.55;;;;;;;4.75;100.00;101590.50;4991617;28;20050;-50
2022/01/25 03:38:40;;;;;;;17.98;4.88;;;;;;;4.73;100.00;101588.13;4992199;28;20471;-50
2022/01/25 03:41:44;;;;;;;14.05;4.22;;;;;;;4.73;100.00;101587.34;4991811;28;20050;-50
2022/01/25 03:44:48;;;;;;;11.98;4.10;;;;;;;4.73;100.00;101587.34;4991551;28;20054;-50
2022/01/25 03:51:21;;;;;;;16.88;4.95;;;;;;;4.77;100.00;101577.88;4990546;28;20523;-50
2022/01/25 03:54:25;;;;;;;26.05;6.65;;;;;;;4.81;100.00;101578.66;4991454;28;20042;-50
2022/01/25 03:57:29;;;;;;;13.27;3.50;;;;;;;4.85;100.00;101573.94;4991849;28;20050;-50
2022/01/25 04:00:34;;;;;;;35.72;5.80;;;;;;;4.87;100.00;101576.31;4991517;28;20046;-50
2022/01/25 04:03:43;;;;;;;6.43;3.30;;;;;;;4.87;100.00;101568.03;4991611;28;20050;-50
2022/01/25 04:06:51;;;;;;;50.13;6.88;;;;;;;4.83;100.00;101567.25;4991479;28;20105;-50
2022/01/25 04:09:54;;;;;;;11.90;4.82;;;;;;;4.83;100.00;101564.50;4991658;28;20043;-50
2022/01/25 04:12:58;;;;;;;19.23;4.55;;;;;;;4.87;100.00;101563.31;4991220;28;20069;-50
2022/01/25 04:16:09;;;;;;;18.23;5.43;;;;;;;4.90;100.00;101570.00;4991172;28;20058;-50
2022/01/25 04:19:21;;;;;;;19.90;3.88;;;;;;;4.84;100.00;101561.34;4991387;28;20058;-50
2022/01/25 04:25:29;;;;;;;12.30;3.97;;;;;;;4.84;100.00;101571.56;4995347;28;20051;-50
2022/01/25 04:28:32;;;;;;;24.75;7.20;;;;;;;4.83;100.00;101564.50;4975690;28;20061;-50
2022/01/25 04:31:37;;;;;;;16.38;3.83;;;;;;;4.85;100.00;101565.66;4975697;28;20070;-50
2022/01/25 04:34:57;;;;;;;12.30;4.65;;;;;;;4.85;100.00;101556.59;4975936;28;20051;-50
2022/01/25 04:58:12;;;;;;;30.75;4.93;;;;;;;4.86;100.00;101547.13;4994609;28;20054;-50
2022/01/25 05:01:17;;;;;;;38.95;6.80;;;;;;;4.80;100.00;101545.94;4994224;28;20518;-50
2022/01/25 05:04:27;;;;;;;12.38;5.18;;;;;;;4.80;100.00;101537.69;4994191;28;20050;-50
2022/01/25 05:07:41;;;;;;;37.25;7.32;;;;;;;4.77;100.00;101533.72;4994432;28;20097;-50
2022/01/25 05:10:58;;;;;;;32.47;6.15;;;;;;;4.74;100.00;101537.28;4994467;28;20054;-50
2022/01/25 05:17:11;;;;;;;30.92;5.70;;;;;;;4.79;100.00;101530.56;4994436;28;20046;-50
2022/01/25 05:23:37;;;;;;;15.43;4.00;;;;;;;4.87;100.00;101540.44;4993890;28;20070;-50
2022/01/25 05:26:41;;;;;;;34.72;8.27;;;;;;;4.86;100.00;101545.16;4994613;28;20049;-50
2022/01/25 05:29:44;;;;;;;17.10;5.07;;;;;;;4.83;100.00;101545.19;4994482;28;20058;-50
2022/01/25 05:32:48;;;;;;;21.15;4.05;;;;;;;4.85;100.00;101548.31;4992804;28;20504;-50
2022/01/25 05:35:51;;;;;;;8.05;3.47;;;;;;;4.85;100.00;101540.03;4993923;28;20058;-50
2022/01/25 05:38:57;;;;;;;21.50;6.13;;;;;;;4.89;100.00;101546.34;4993653;28;20061;-50
2022/01/25 05:48:23;;;;;;;26.70;3.78;;;;;;;4.84;100.00;101538.44;4993680;28;20057;-50
2022/01/25 05:51:27;;;;;;;7.13;3.72;;;;;;;4.94;100.00;101537.66;4993711;28;20062;-49
2022/01/25 05:54:31;;;;;;;20.45;5.18;;;;;;;4.89;100.00;101540.81;4993807;28;20069;-50
2022/01/25 05:57:34;;;;;;;42.03;5.88;;;;;;;4.80;100.00;101543.19;4993582;28;20062;-50
2022/01/25 06:00:38;;;;;;;21.65;3.97;;;;;;;4.82;100.00;101544.38;4993637;28;20054;-50
2022/01/25 06:03:44;;;;;;;14.65;3.50;;;;;;;4.81;100.00;101542.03;4993454;28;20055;-50
2022/01/25 06:06:48;;;;;;;21.67;5.70;;;;;;;4.78;100.00;101538.06;4993183;28;20050;-50
2022/01/25 06:09:51;;;;;;;14.18;3.85;;;;;;;4.91;100.00;101535.69;4992690;28;20054;-50
2022/01/25 06:12:55;;;;;;;26.15;5.43;;;;;;;4.91;100.00;101546.75;4993232;28;20066;-50
2022/01/25 06:15:58;;;;;;;14.52;4.78;;;;;;;4.90;100.00;101542.38;4992934;28;20065;-50
2022/01/25 06:19:02;;;;;;;13.85;4.10;;;;;;;4.91;100.00;101536.50;4993283;28;20065;-50
2022/01/25 06:22:05;;;;;;;17.88;3.38;;;;;;;4.89;100.00;101544.38;4992719;28;20046;-50
2022/01/25 06:25:11;;;;;;;12.23;3.72;;;;;;;4.89;100.00;101536.09;4992868;28;20054;-50
2022/01/25 06:28:14;;;;;;;11.75;3.67;;;;;;;4.84;100.00;101533.72;4973290;28;20063;-50
2022/01/25 06:31:18;;;;;;;18.10;4.97;;;;;;;4.80;100.00;101545.94;4972907;28;20476;-50
2022/01/25 06:34:21;;;;;;;42.90;7.25;;;;;;;4.76;100.00;101550.69;4973134;28;20074;-50
2022/01/25 06:37:25;;;;;;;22.33;3.92;;;;;;;4.83;100.00;101554.22;4987098;28;20051;-50
2022/01/25 06:40:29;;;;;;;23.08;7.95;;;;;;;4.74;100.00;101550.31;4992979;28;20054;-50
2022/01/25 06:43:32;;;;;;;47.25;8.80;;;;;;;4.71;100.00;101554.63;4992892;28;20109;-50
2022/01/25 06:46:35;;;;;;;29.38;5.95;;;;;;;4.78;100.00;101548.31;4992389;28;20061;-50
2022/01/25 06:49:39;;;;;;;21.67;6.35;;;;;;;4.76;100.00;101545.97;4992256;28;20054;-50
2022/01/25 06:52:43;;;;;;;39.63;8.35;;;;;;;4.75;100.00;101541.63;4992346;28;20063;-50
2022/01/25 06:55:46;;;;;;;24.63;6.38;;;;;;;4.81;100.00;101539.25;4991397;28;20424;-49
2022/01/25 06:58:50;;;;;;;47.47;8.57;;;;;;;4.77;100.00;101544.78;4992586;28;20050;-50
2022/01/25 07:01:53;;;;;;;22.52;5.07;;;;;;;4.75;100.00;101538.06;4992205;28;20399;-50
2022/01/25 07:04:57;;;;;;;20.52;4.70;;;;;;;4.74;100.00;101537.28;4992537;28;20054;-50
2022/01/25 07:08:02;;;;;;;35.75;5.47;;;;;;;4.71;100.00;101542.78;4992175;28;20534;-50
2022/01/25 07:11:05;;;;;;;24.17;5.05;;;;;;;4.72;100.00;101555.44;4992277;28;20419;-49
2022/01/25 07:14:09;;;;;;;16.63;5.65;;;;;;;4.68;100.00;101551.88;4992347;28;20490;-50
2022/01/25 07:17:12;;;;;;;3.13;2.15;;;;;;;4.65;100.00;101542.41;4992341;28;20050;-50
2022/01/25 07:20:16;;;;;;;14.38;4.95;;;;;;;4.70;100.00;101549.50;4991694;28;20073;-50
2022/01/25 07:23:19;;;;;;;30.20;3.83;;;;;;;4.70;100.00;101544.00;4991342;28;20046;-50
2022/01/25 07:26:23;;;;;;;10.50;5.22;;;;;;;4.70;100.00;101552.28;4991975;28;20058;-50
2022/01/25 07:29:27;;;;;;;8.30;2.25;;;;;;;4.60;100.00;101549.13;4991261;28;20046;-50
2022/01/25 07:32:30;;;;;;;16.73;4.35;;;;;;;4.57;100.00;101541.63;4990628;28;20065;-49
2022/01/25 07:35:36;;;;;;;9.18;3.60;;;;;;;4.62;100.00;101548.72;4991605;28;20499;-50
2022/01/25 07:38:39;;;;;;;6.63;2.45;;;;;;;4.63;100.00;101548.31;4986571;28;20061;-50
2022/01/25 07:41:44;;;;;;;11.52;4.43;;;;;;;4.66;100.00;101548.72;4972630;28;20053;-50
2022/01/25 07:44:48;;;;;;;7.00;3.33;;;;;;;4.65;100.00;101555.41;4972371;28;20055;-50
2022/01/25 07:47:51;;;;;;;13.43;3.47;;;;;;;4.71;100.00;101556.59;4989350;28;20062;-50
2022/01/25 07:50:56;;;;;;;13.93;4.97;;;;;;;4.67;100.00;101562.13;4991470;28;20050;-50
2022/01/25 07:53:59;;;;;;;6.97;3.83;;;;;;;4.70;100.00;101561.31;4991084;28;20062;-50
2022/01/25 07:57:03;;;;;;;15.27;2.97;;;;;;;4.72;100.00;101574.75;4990603;28;20061;-50
2022/01/25 08:00:07;;;;;;;21.85;3.78;;;;;;;4.72;100.00;101580.25;4990853;28;20049;-50
2022/01/25 08:03:11;;;;;;;12.10;3.88;;;;;;;4.72;100.00;101575.50;4991297;28;20383;-50
2022/01/25 08:06:14;;;;;;;8.75;3.53;;;;;;;4.65;100.00;101585.78;4990867;28;20046;-50
2022/01/25 08:09:19;;;;;;;9.35;4.25;;;;;;;4.61;100.00;101585.78;4991019;28;20085;-49
2022/01/25 08:12:22;;;;;;;14.45;2.97;;;;;;;4.62;100.00;101587.34;4990384;28;20053;-50
2022/01/25 08:15:26;;;;;;;10.60;2.75;;;;;;;4.56;100.00;101588.91;4991376;28;20046;-50
2022/01/25 08:18:29;;;;;;;8.95;3.55;;;;;;;4.56;100.00;101600.75;4988433;28;20038;-50
2022/01/25 08:21:33;;;;;;;23.35;3.28;;;;;;;4.64;100.00;101607.03;4991119;28;20058;-50
2022/01/25 08:24:36;;;;;;;11.98;2.38;;;;;;;4.61;100.00;101608.63;4991024;28;20506;-50
2022/01/25 08:27:40;;;;;;;12.15;3.47;;;;;;;4.59;100.00;101605.47;4991426;28;20062;-50
2022/01/25 08:30:43;;;;;;;13.25;4.82;;;;;;;4.63;100.00;101609.00;4991236;28;20050;-50
2022/01/25 08:33:47;;;;;;;22.65;3.42;;;;;;;4.64;100.00;101607.03;4991104;28;20062;-50
2022/01/25 08:36:51;;;;;;;14.13;4.35;;;;;;;4.65;100.00;101613.34;4991159;28;20062;-49
2022/01/25 08:39:54;;;;;;;21.80;4.15;;;;;;;4.63;100.00;101613.75;4990171;28;20050;-50
2022/01/25 08:42:58;;;;;;;6.47;3.42;;;;;;;4.62;100.00;101603.88;4991605;28;20380;-50
2022/01/25 08:46:02;;;;;;;14.07;5.00;;;;;;;4.60;100.00;101607.06;4990875;28;20097;-49
2022/01/25 08:49:06;;;;;;;17.45;4.97;;;;;;;4.54;100.00;101614.13;4990742;28;20069;-50
2022/01/25 08:52:10;;;;;;;30.48;4.72;;;;;;;4.55;100.00;101612.16;4991040;28;20385;-50
2022/01/25 08:55:14;;;;;;;8.77;4.28;;;;;;;4.54;100.00;101611.38;4990041;28;20050;-50
2022/01/25 08:58:18;;;;;;;10.30;4.20;;;;;;;4.67;100.00;101605.47;4990063;28;20388;-50
2022/01/25 09:01:21;;;;;;;11.27;3.10;;;;;;;4.74;100.00;101605.50;4990617;28;20046;-50
2022/01/25 09:04:25;;;;;;;9.40;2.35;;;;;;;4.77;100.00;101599.16;4990278;28;20066;-49
2022/01/25 09:07:28;;;;;;;19.05;4.05;;;;;;;4.70;100.00;101607.47;4990500;28;20065;-49
2022/01/25 09:10:33;;;;;;;32.85;6.63;;;;;;;4.70;100.00;101604.69;4994092;28;20058;-49
2022/01/25 09:13:39;;;;;;;21.02;6.72;;;;;;;4.68;100.00;101605.06;4993698;28;20062;-50
2022/01/25 09:16:43;;;;;;;32.80;8.02;;;;;;;4.65;100.00;101602.31;4993868;28;20065;-50
2022/01/25 09:19:46;;;;;;;12.55;3.10;;;;;;;4.67;100.00;101597.19;4993431;28;20298;-49
2022/01/25 09:22:50;;;;;;;21.30;4.20;;;;;;;4.60;100.00;101601.53;4994106;28;20475;-50
2022/01/25 09:25:55;;;;;;;6.63;2.97;;;;;;;4.62;100.00;101603.88;4993908;28;20412;-49
2022/01/25 09:28:58;;;;;;;12.85;3.63;;;;;;;4.61;100.00;101596.81;4993052;28;20054;-49
2022/01/25 09:32:02;;;;;;;41.63;5.63;;;;;;;4.63;100.00;101605.47;4993445;28;20076;-50
2022/01/25 09:35:06;;;;;;;34.20;6.47;;;;;;;4.67;100.00;101605.47;4994006;28;20049;-50
2022/01/25 09:38:10;;;;;;;18.48;3.63;;;;;;;4.61;100.00;101603.09;4993660;28;20050;-50
2022/01/25 09:41:14;;;;;;;4.03;3.30;;;;;;;4.63;100.00;101607.44;4993784;28;20415;-50
2022/01/25 09:44:18;;;;;;;13.02;2.80;;;;;;;4.63;100.00;101616.53;4992625;28;20069;-49
2022/01/25 09:47:22;;;;;;;18.00;2.80;;;;;;;4.67;100.00;101619.28;4993681;28;20057;-50
2022/01/25 09:50:26;;;;;;;11.50;4.18;;;;;;;4.65;100.00;101625.19;4993254;28;20463;-50
2022/01/25 09:53:33;;;;;;;20.95;4.22;;;;;;;4.62;100.00;101614.94;4993847;28;20046;-50
2022/01/25 09:56:36;;;;;;;17.08;4.32;;;;;;;4.67;100.00;101630.31;4993065;28;20432;-49
2022/01/25 09:59:40;;;;;;;14.52;3.47;;;;;;;4.65;100.00;101618.88;4993758;28;20069;-50
2022/01/25 10:06:15;;;;;;;8.40;2.78;;;;;;;4.61;100.00;101619.66;4993096;28;20081;-50
2022/01/25 10:09:20;;;;;;;15.43;3.47;;;;;;;4.62;100.00;101625.97;4993112;28;20411;-50
2022/01/25 10:12:23;;;;;;;7.90;2.55;;;;;;;4.63;100.00;101629.53;4993360;28;20085;-50
2022/01/25 10:15:27;;;;;;;15.15;6.03;;;;;;;4.60;100.00;101618.09;4992734;28;20061;-50
2022/01/25 10:18:58;;;;;;;13.07;3.17;;;;;;;4.63;100.00;101622.81;4981139;28;20054;-50
2022/01/25 10:22:02;;;;;;;8.93;2.17;;;;;;;4.69;100.00;101622.44;4992889;28;20054;-50
2022/01/25 10:25:06;;;;;;;13.38;2.65;;;;;;;4.68;100.00;101620.88;4993029;28;20050;-50
2022/01/25 10:28:12;;;;;;;11.23;2.70;;;;;;;4.68;100.00;101627.16;4993181;28;20507;-50
2022/01/25 10:31:15;;;;;;;19.38;3.17;;;;;;;4.76;100.00;101627.97;4992911;28;20519;-50
2022/01/25 10:34:32;;;;;;;4.65;2.05;;;;;;;4.82;100.00;101634.66;4992025;28;20403;-49
2022/01/25 10:37:41;;;;;;;16.75;3.97;;;;;;;4.73;100.00;101639.78;4992190;28;20057;-50
2022/01/25 10:40:54;;;;;;;10.07;3.15;;;;;;;4.81;100.00;101644.13;4993053;28;20495;-50
2022/01/25 10:43:58;;;;;;;10.57;1.83;;;;;;;4.74;100.00;101646.88;4992978;28;20404;-50
2022/01/25 10:47:01;;;;;;;15.45;3.20;;;;;;;4.72;100.00;101646.50;4992258;28;20401;-49
2022/01/25 10:50:14;;;;;;;5.45;2.53;;;;;;;4.74;100.00;101650.44;4992165;28;20050;-50
2022/01/25 10:53:17;;;;;;;10.07;2.17;;;;;;;4.76;100.00;101641.75;4990828;28;20512;-50
2022/01/25 10:56:23;;;;;;;13.85;3.17;;;;;;;4.72;100.00;101640.97;4991630;28;20072;-50
2022/01/25 10:59:30;;;;;;;14.32;3.67;;;;;;;4.68;100.00;101640.94;4992309;28;20046;-50
2022/01/25 11:02:34;;;;;;;12.15;2.38;;;;;;;4.63;100.00;101633.06;4992167;28;20407;-50
2022/01/25 11:05:41;;;;;;;12.57;4.78;;;;;;;4.67;100.00;101627.56;4991385;28;20059;-50
2022/01/25 11:08:49;;;;;;;16.60;3.28;;;;;;;4.63;100.00;101637.78;4992143;28;20051;-50
2022/01/25 11:11:56;;;;;;;11.20;3.42;;;;;;;4.58;100.00;101637.00;4992292;28;20050;-50
2022/01/25 11:14:59;;;;;;;36.58;3.55;;;;;;;4.48;100.00;101635.00;4991831;28;20412;-50
2022/01/25 11:18:05;;;;;;;16.15;5.65;;;;;;;4.64;100.00;101634.63;4991523;28;20066;-50
2022/01/25 11:21:11;;;;;;;12.07;3.38;;;;;;;4.83;100.00;101630.72;4991801;28;20061;-50
2022/01/25 11:24:16;;;;;;;21.20;4.45;;;;;;;4.85;100.00;101631.91;4992076;28;20061;-50
2022/01/25 11:27:22;;;;;;;10.02;2.72;;;;;;;4.93;100.00;101624.41;4991771;28;20061;-50
2022/01/25 11:30:25;;;;;;;19.23;3.58;;;;;;;5.00;100.00;101622.44;4991663;28;20050;-50
2022/01/25 11:33:30;;;;;;;11.15;2.83;;;;;;;5.00;100.00;101624.44;4992234;28;20483;-50
2022/01/25 11:37:01;;;;;;;2.78;2.22;;;;;;;4.96;100.00;101626.41;4990871;28;20057;-49
2022/01/25 11:40:23;;;;;;;8.75;2.10;;;;;;;4.99;100.00;101625.59;4991760;28;20077;-50
2022/01/25 11:43:26;;;;;;;8.13;1.83;;;;;;;4.95;100.00;101628.38;4991005;28;20057;-50
2022/01/25 11:46:30;;;;;;;13.25;3.53;;;;;;;4.98;100.00;101632.31;4991732;28;20053;-50
2022/01/25 11:49:33;;;;;;;16.00;3.03;;;;;;;4.97;100.00;101620.47;4991526;28;20081;-50
2022/01/25 11:52:50;;;;;;;11.73;2.85;;;;;;;4.87;100.00;101614.97;4991520;28;20065;-50
2022/01/25 11:55:54;;;;;;;25.55;4.68;;;;;;;4.95;100.00;101611.00;4987961;28;20058;-50
2022/01/25 11:58:59;;;;;;;8.55;1.80;;;;;;;5.02;100.00;101605.50;4991480;28;20051;-50
2022/01/25 12:02:03;;;;;;;4.40;1.98;;;;;;;5.14;100.00;101605.09;4991136;28;20057;-49
2022/01/25 12:05:13;;;;;;;10.00;2.10;;;;;;;5.14;100.00;101596.81;4991356;28;20078;-50
2022/01/25 12:08:27;;;;;;;14.60;3.33;;;;;;;5.19;100.00;101594.44;4990673;28;20046;-50
2022/01/25 12:15:13;;;;;;;4.57;1.60;;;;;;;5.30;100.00;101595.22;4991083;28;20058;-50
2022/01/25 12:19:05;;;;;;;15.23;1.77;;;;;;;5.34;100.00;101592.44;4990464;28;20053;-50
2022/01/25 12:22:15;;;;;;;;;;;;;;;5.42;100.00;101591.22;4991542;28;20065;-50
2022/01/25 12:25:46;;;;;;;12.35;2.72;;;;;;;5.46;100.00;101586.47;4991024;28;19917;-49
2022/01/25 12:28:47;;;;;;;8.52;1.42;;;;;;;5.40;100.00;101588.06;4972397;28;20055;-50
2022/01/25 12:31:50;;;;;;;4.22;1.85;;;;;;;5.39;100.00;101581.75;4971821;28;20066;-50
2022/01/25 12:35:09;;;;;;;3.25;0.60;;;;;;;5.44;100.00;101572.28;4982056;28;20618;-50
2022/01/25 12:38:37;;;;;;;5.53;2.13;;;;;;;5.47;100.00;101577.03;4980562;28;20061;-50
2022/01/25 12:41:40;;;;;;;12.45;2.45;;;;;;;5.51;100.00;101566.75;4990694;28;20057;-50
2022/01/25 12:44:44;;;;;;;9.40;2.15;;;;;;;5.64;100.00;101564.31;4994768;28;20065;-50
2022/01/25 12:48:03;;;;;;;9.43;3.47;;;;;;;5.77;100.00;101552.44;4994718;28;20061;-49
2022/01/25 12:51:11;;;;;;;3.35;2.22;;;;;;;5.84;100.00;101549.69;4994517;28;20572;-50
2022/01/25 12:54:17;;;;;;;5.35;2.25;;;;;;;5.84;100.00;101541.38;4994393;28;20065;-50
2022/01/25 12:57:20;;;;;;;11.88;2.50;;;;;;;5.86;100.00;101539.00;4994294;28;20061;-50
2022/01/25 13:00:30;;;;;;;14.50;2.63;;;;;;;5.83;100.00;101531.47;4994487;28;20050;-50
2022/01/25 13:03:39;;;;;;;20.98;2.67;;;;;;;5.82;100.00;101526.34;4993833;28;20502;-50
2022/01/25 13:06:48;;;;;;;4.35;2.25;;;;;;;5.91;100.00;101513.69;4993915;28;20050;-50
2022/01/25 13:09:54;;;;;;;4.95;1.25;;;;;;;5.86;100.00;101508.59;4994165;28;20061;-50
2022/01/25 13:13:10;;;;;;;32.33;3.25;;;;;;;5.85;100.00;101504.25;4994162;28;20077;-50
2022/01/25 13:16:13;;;;;;;10.77;3.22;;;;;;;5.94;100.00;101501.81;4993446;28;20050;-50
2022/01/25 13:19:32;;;;;;;5.03;2.03;;;;;;;5.87;100.00;101501.06;4993236;28;20058;-50
2022/01/25 13:22:42;;;;;;;6.80;1.63;;;;;;;5.82;100.00;101505.03;4993613;28;20061;-50
2022/01/25 13:32:40;;;;;;;21.48;3.08;;;;;;;5.86;100.00;101505.81;5012350;28;20058;-51
2022/01/25 13:35:49;;;;;;;5.30;1.80;;;;;;;5.89;100.00;101510.53;5012071;28;20073;-50
2022/01/25 13:38:52;;;;;;;10.57;3.03;;;;;;;5.90;100.00;101503.81;4993983;28;20057;-50
2022/01/25 13:42:09;;;;;;;19.02;3.25;;;;;;;5.90;100.00;101511.31;4993914;28;20610;-50
2022/01/25 13:48:40;;;;;;;12.50;2.83;;;;;;;5.90;100.00;101512.13;4973367;28;20077;-50
2022/01/25 13:51:51;;;;;;;10.32;2.33;;;;;;;5.89;100.00;101516.06;4973170;28;20058;-50
2022/01/25 13:55:08;;;;;;;7.15;2.30;;;;;;;5.91;100.00;101508.16;4972744;28;20059;-51
2022/01/25 13:58:26;;;;;;;16.23;4.93;;;;;;;5.95;100.00;101502.63;4972638;28;20062;-52
2022/01/25 14:01:32;;;;;;;12.13;3.70;;;;;;;6.00;100.00;101505.72;4990185;28;20073;-51
2022/01/25 14:04:38;;;;;;;9.20;2.80;;;;;;;5.99;100.00;101504.19;4992900;28;20070;-51
2022/01/25 14:07:41;;;;;;;19.05;4.47;;;;;;;5.99;100.00;101504.19;4992836;28;20118;-51
2022/01/25 14:10:48;;;;;;;9.52;2.50;;;;;;;6.06;100.00;101506.88;4992992;28;20054;-51
2022/01/25 14:24:06;;;;;;;12.27;2.63;;;;;;;6.37;100.00;101496.00;4971092;28;20054;-50
2022/01/25 14:27:27;;;;;;;14.63;3.72;;;;;;;6.38;100.00;101494.81;4971107;28;20046;-50
2022/01/25 14:30:33;;;;;;;4.35;2.35;;;;;;;6.42;100.00;101488.06;4988361;28;20505;-50
2022/01/25 14:33:39;;;;;;;8.15;0.95;;;;;;;6.50;100.00;101483.25;4989402;28;20069;-51
2022/01/25 14:36:47;;;;;;;9.82;3.67;;;;;;;6.63;100.00;101481.53;4990221;28;20176;-50
2022/01/25 14:39:50;;;;;;;2.97;1.50;;;;;;;6.68;100.00;101478.34;4958709;28;20065;-50
2022/01/25 14:42:55;;;;;;;7.68;2.67;;;;;;;6.73;100.00;101483.44;4909570;28;20074;-49
2022/01/25 14:46:06;;;;;;;4.75;2.08;;;;;;;6.72;100.00;101487.41;4979550;28;20066;-48
2022/01/25 14:49:22;;;;;;;13.23;2.92;;;;;;;6.71;100.00;101491.38;4992127;28;20062;-50
2022/01/25 14:52:26;;;;;;;14.90;2.55;;;;;;;6.68;100.00;101489.41;4990803;28;20384;-50
2022/01/25 14:55:31;;;;;;;10.60;4.35;;;;;;;6.63;100.00;101487.09;4979649;28;20123;-49
2022/01/25 15:02:02;;;;;;;12.82;2.03;;;;;;;6.59;100.00;101484.34;4973874;28;20065;-50
2022/01/25 15:05:06;;;;;;;2.88;1.08;;;;;;;6.57;100.00;101483.97;4990908;28;20077;-50
2022/01/25 15:08:10;;;;;;;5.65;2.65;;;;;;;6.57;100.00;101483.19;4977051;28;20057;-50
2022/01/25 15:11:13;;;;;;;15.07;2.42;;;;;;;6.60;100.00;101482.38;4972658;28;20069;-50
2022/01/25 15:14:19;;;;;;;15.10;1.60;;;;;;;6.62;100.00;101468.91;4972224;28;20071;-50
2022/01/25 15:17:23;;;;;;;3.80;1.02;;;;;;;6.61;100.00;101468.13;4984382;28;20415;-49
2022/01/25 15:20:27;;;;;;;9.55;2.10;;;;;;;6.61;100.00;101470.91;4991539;28;20693;-49
2022/01/25 15:23:33;;;;;;;11.88;3.53;;;;;;;6.61;100.00;101472.88;4991561;28;20049;-50
2022/01/25 15:26:37;;;;;;;8.27;1.90;;;;;;;6.58;100.00;101471.69;4991960;28;20061;-50
2022/01/25 15:29:41;;;;;;;3.67;1.70;;;;;;;6.59;100.00;101481.59;4999373;28;20056;-51
2022/01/25 15:32:44;;;;;;;10.23;2.70;;;;;;;6.60;100.00;101482.38;5002074;28;20061;-50
2022/01/25 15:35:49;;;;;;;10.48;1.63;;;;;;;6.61;100.00;101484.72;4990998;28;20043;-50
2022/01/25 15:38:53;;;;;;;3.78;0.77;;;;;;;6.53;100.00;101482.44;4970802;28;20059;-49
2022/01/25 15:41:59;;;;;;;4.57;1.75;;;;;;;6.56;100.00;101482.41;4972387;28;20523;-48
2022/01/25 15:45:12;;;;;;;5.30;1.88;;;;;;;6.50;100.00;101483.25;4990091;28;20065;-49
2022/01/25 15:48:15;;;;;;;5.38;1.17;;;;;;;6.50;100.00;101486.00;4971280;28;20062;-48
2022/01/25 15:51:18;;;;;;;2.33;1.20;;;;;;;6.43;100.00;101488.84;4970574;28;20065;-48
2022/01/25 15:54:24;;;;;;;9.02;2.58;;;;;;;6.46;100.00;101488.81;4970578;28;20066;-49
2022/01/25 15:57:28;;;;;;;2.17;0.90;;;;;;;6.43;100.00;101491.63;4984000;28;20514;-48
2022/01/25 16:00:31;;;;;;;3.13;1.08;;;;;;;6.40;100.00;101492.41;4990740;28;20522;-48
2022/01/25 16:03:34;;;;;;;6.80;2.35;;;;;;;6.45;100.00;101492.78;4979076;28;20061;-48
2022/01/25 16:06:38;;;;;;;4.03;1.13;;;;;;;6.41;100.00;101494.00;4978658;28;20081;-48
2022/01/25 16:09:43;;;;;;;10.88;2.38;;;;;;;6.39;100.00;101490.88;4990640;28;20057;-48
2022/01/25 16:12:47;;;;;;;8.18;2.25;;;;;;;6.41;100.00;101485.72;4985153;28;20053;-48
2022/01/25 16:15:51;;;;;;;18.35;3.58;;;;;;;6.40;100.00;101484.13;4963242;28;20061;-48
2022/01/25 16:18:54;;;;;;;11.27;2.53;;;;;;;6.35;100.00;101476.25;4993923;28;20504;-48
2022/01/25 16:21:58;;;;;;;5.53;2.15;;;;;;;6.34;100.00;101480.22;4983032;28;20054;-48
2022/01/25 16:25:02;;;;;;;4.53;2.08;;;;;;;6.32;100.00;101483.41;4994504;28;20063;-48
2022/01/25 16:28:07;;;;;;;6.88;2.33;;;;;;;6.31;100.00;101481.03;4993493;28;20522;-48
2022/01/25 16:31:28;;;;;;;3.63;1.48;;;;;;;6.33;100.00;101473.91;4994056;28;20066;-48